Aviation Digital Data Service (ADDS)

Output produced by METARs form (2101 UTC 02 August 2021)
found at http://www.aviationweather.gov/metar/data/
 
Forecast for: OKBK (KUWAIT INTL (MIL, KW)
Text: TAF OKBK 021645Z 0218/0324 33012KT 7000 NSC
Forecast period: 1800 UTC 02 August 2021 to 0000 UTC 04 August 2021
Forecast type: FROM: standard forecast or significant change
Winds: from the NNW (330 degrees) at 14 MPH (12 knots; 6.2 m/s)
Visibility: 4 miles (7 km)
Ceiling: unknown
Clouds: missing
Weather: no significant weather forecast for this period
Text: TEMPO 0218/0304 VRB03KT 4000 HZ
Forecast period: 1800 UTC 02 August 2021 to 0400 UTC 03 August 2021
Forecast type: TEMPORARY: The following changes expected for less than half the time period
Winds: variable direction winds at 3 MPH (3 knots; 1.5 m/s)
Visibility: 2.49 miles (4.01 km)
Ceiling: unknown
Clouds: missing
Weather: HZ  (haze)